KPOU/POU METAR and TAF weather

Enter ICAO airport designator
Station Type Date Time Source
KPOU METAR 2021/04/17 00:53 UTC NOAA

KPOU 170053Z AUTO 33005KT 10SM FEW034 OVC060 06/03 A2968 RMK AO2 SLP049 T00610028 TSNO


Station Type Date Time Source
KPOU Decoded METAR 2021/04/17 00:53 UTC NOAA

POUGHKEEPSIE DUTCHESS CTY, NY, United States (KPOU) 41-38N 073-53W 46M
Apr 16, 2021 - 08:53 PM EDT / 2021.04.17 0053 UTC
Wind: from the NNW (330 degrees) at 6 MPH (5 KT):0
Visibility: 10 mile(s):0
Sky conditions: overcast
Temperature: 43.0 F (6.1 C)
Dew Point: 37.0 F (2.8 C)
Relative Humidity: 79%
Pressure (altimeter): 29.68 in. Hg (1005 hPa)
ob: KPOU 170053Z AUTO 33005KT 10SM FEW034 OVC060 06/03 A2968 RMK AO2 SLP049 T00610028 TSNO
cycle: 1

Station Type Date Time Source
KPOU TAF 2021/04/16 18:36 UTC NOAA

TAF KPOU 161733Z 1618/1718 36008KT P6SM VCSH BKN040 OVC060
FM170000 32005KT P6SM SCT025 OVC035
FM171000 35003KT P6SM OVC025
FM171600 35006KT P6SM SCT025 BKN035

Example: see airport list